createdAt,value
2023-09-05T00:00:38.142Z,4.90
2023-09-05T00:03:06.239Z,4.43
2023-09-05T00:05:33.174Z,4.80
2023-09-05T00:08:00.238Z,4.80
2023-09-05T00:10:27.231Z,5.00
2023-09-05T00:12:54.246Z,5.53
2023-09-05T00:15:21.378Z,5.47
2023-09-05T00:17:50.438Z,4.53
2023-09-05T00:20:17.691Z,5.20
2023-09-05T00:22:44.903Z,5.00
2023-09-05T00:25:11.893Z,4.67
2023-09-05T00:27:39.722Z,4.60
2023-09-05T00:30:07.612Z,5.50
2023-09-05T00:32:34.579Z,6.47
2023-09-05T00:35:01.532Z,4.87
2023-09-05T00:37:28.460Z,5.73
2023-09-05T00:39:55.398Z,5.30
2023-09-05T00:42:22.628Z,5.23
2023-09-05T00:44:49.641Z,5.50
2023-09-05T00:47:17.665Z,4.80
2023-09-05T00:49:44.875Z,5.40
2023-09-05T00:52:12.043Z,5.60
2023-09-05T00:54:39.335Z,5.07
2023-09-05T00:57:07.353Z,5.83
2023-09-05T00:59:34.369Z,4.90
2023-09-05T01:02:01.683Z,5.60
2023-09-05T01:04:30.522Z,5.43
2023-09-05T01:07:07.123Z,7.27
2023-09-05T01:09:46.198Z,4.80
2023-09-05T01:12:13.273Z,6.53
2023-09-05T01:14:40.273Z,5.80
2023-09-05T01:17:07.562Z,5.50
2023-09-05T01:19:38.566Z,6.63
2023-09-05T01:22:17.058Z,5.43
2023-09-05T01:24:45.629Z,5.20
2023-09-05T01:27:14.306Z,6.47
2023-09-05T01:29:41.593Z,5.47
2023-09-05T01:32:09.918Z,5.03
2023-09-05T01:34:37.914Z,5.70
2023-09-05T01:37:05.363Z,6.40
2023-09-05T01:39:32.594Z,6.00
2023-09-05T01:41:59.866Z,6.40
2023-09-05T01:44:27.362Z,6.90
2023-09-05T01:46:54.523Z,6.93
2023-09-05T01:49:21.836Z,6.20
2023-09-05T01:51:49.088Z,7.20
2023-09-05T01:54:16.091Z,5.30
2023-09-05T01:56:43.058Z,5.70
2023-09-05T01:59:10.352Z,5.73
2023-09-05T02:01:37.439Z,5.53
2023-09-05T02:04:04.617Z,6.60
2023-09-05T02:06:31.608Z,5.90
2023-09-05T02:08:58.572Z,5.67
2023-09-05T02:11:25.485Z,6.47
2023-09-05T02:17:49.046Z,5.63
2023-09-05T02:20:17.655Z,5.70
2023-09-05T02:22:45.330Z,5.40
2023-09-05T02:25:12.391Z,6.47
2023-09-05T02:27:39.873Z,5.40
2023-09-05T02:30:07.806Z,5.53
2023-09-05T02:32:35.244Z,5.80
2023-09-05T02:35:03.017Z,5.57
2023-09-05T02:37:30.016Z,5.80
2023-09-05T02:39:57.159Z,5.23
2023-09-05T02:42:24.386Z,6.13
2023-09-05T02:44:52.887Z,5.77
2023-09-05T02:47:21.688Z,6.97
2023-09-05T02:49:48.672Z,7.53
2023-09-05T02:52:16.082Z,6.40
2023-09-05T02:54:43.281Z,7.67
2023-09-05T02:57:10.279Z,6.67
2023-09-05T02:59:37.215Z,7.50
2023-09-05T03:02:04.554Z,5.90
2023-09-05T03:04:31.667Z,7.53
2023-09-05T03:07:00.803Z,9.27
2023-09-05T03:09:28.019Z,6.60
2023-09-05T03:11:55.399Z,5.70
2023-09-05T03:14:22.622Z,7.90
2023-09-05T03:16:51.066Z,6.37
2023-09-05T03:19:19.267Z,6.33
2023-09-05T03:21:46.496Z,6.77
2023-09-05T03:24:13.444Z,6.40
2023-09-05T03:26:40.383Z,7.00
2023-09-05T03:29:07.408Z,7.13
2023-09-05T03:31:34.416Z,8.43
2023-09-05T03:34:01.420Z,8.00
2023-09-05T03:36:28.495Z,7.37
2023-09-05T03:38:55.512Z,7.13
2023-09-05T03:41:22.571Z,6.60
2023-09-05T03:43:49.473Z,9.43
2023-09-05T03:46:16.719Z,11.97
2023-09-05T03:48:43.854Z,7.37
2023-09-05T03:51:10.903Z,7.73
2023-09-05T03:53:38.670Z,7.40
2023-09-05T03:56:05.773Z,6.90
2023-09-05T03:58:32.987Z,10.03
2023-09-05T04:01:00.394Z,8.77
2023-09-05T04:03:27.817Z,6.53
2023-09-05T04:05:55.123Z,8.20
2023-09-05T04:08:22.308Z,6.53
2023-09-05T04:10:49.323Z,6.87
2023-09-05T04:13:16.568Z,7.57
2023-09-05T04:15:43.568Z,6.40
2023-09-05T04:18:10.876Z,6.70
2023-09-05T04:20:38.117Z,6.63
2023-09-05T04:23:05.198Z,8.27
2023-09-05T04:25:32.328Z,6.63
2023-09-05T04:27:59.404Z,7.50
2023-09-05T04:30:26.639Z,6.43
2023-09-05T04:32:53.651Z,6.83
2023-09-05T04:35:20.908Z,7.83
2023-09-05T04:37:47.922Z,6.87
2023-09-05T04:40:14.973Z,7.60
2023-09-05T04:42:42.192Z,6.43
2023-09-05T04:45:09.779Z,7.20
2023-09-05T04:47:36.799Z,8.73
2023-09-05T04:50:04.093Z,6.53
2023-09-05T04:52:32.205Z,7.33
2023-09-05T04:55:01.460Z,7.57
2023-09-05T04:57:29.449Z,7.10
2023-09-05T04:59:57.217Z,8.13
2023-09-05T05:02:25.276Z,8.23
2023-09-05T05:04:52.614Z,9.23
2023-09-05T05:07:19.576Z,7.57
2023-09-05T05:09:47.627Z,7.40
2023-09-05T05:12:15.463Z,8.27
2023-09-05T05:14:42.494Z,6.97
2023-09-05T05:17:09.710Z,6.60
2023-09-05T05:19:36.649Z,8.60
2023-09-05T05:22:03.765Z,7.07
2023-09-05T05:24:31.008Z,6.73
2023-09-05T05:26:58.337Z,6.63
2023-09-05T05:29:25.318Z,7.00
2023-09-05T05:31:52.300Z,7.33
2023-09-05T05:34:19.542Z,6.93
2023-09-05T05:36:46.455Z,6.03
2023-09-05T05:39:13.441Z,7.30
2023-09-05T05:41:40.671Z,7.67
2023-09-05T05:44:07.712Z,7.20
2023-09-05T05:46:34.696Z,6.50
2023-09-05T05:49:02.066Z,6.73
2023-09-05T05:51:29.359Z,7.13
2023-09-05T05:53:56.423Z,6.60
2023-09-05T05:56:23.617Z,6.60
2023-09-05T05:58:50.644Z,6.27
2023-09-05T06:01:18.157Z,6.37
2023-09-05T06:03:45.531Z,5.60
2023-09-05T06:06:12.805Z,7.10
2023-09-05T06:08:39.846Z,7.43
2023-09-05T06:11:07.250Z,7.10
2023-09-05T06:13:34.516Z,6.00
2023-09-05T06:16:01.881Z,6.70
2023-09-05T06:18:29.481Z,5.00
2023-09-05T06:20:56.802Z,6.40
2023-09-05T06:23:24.167Z,6.45
2023-09-05T06:25:51.462Z,5.50
2023-09-05T06:28:18.512Z,5.50
2023-09-05T06:30:45.801Z,5.05
2023-09-05T06:33:13.099Z,5.07
2023-09-05T06:35:40.220Z,4.70
2023-09-05T06:38:07.513Z,4.55
2023-09-05T06:40:34.602Z,4.28
2023-09-05T06:43:01.656Z,4.40
2023-09-05T06:45:28.968Z,4.00
2023-09-05T06:47:57.182Z,4.00
2023-09-05T06:50:24.297Z,3.70
2023-09-05T06:52:51.361Z,3.75
2023-09-05T06:55:18.438Z,3.60
2023-09-05T06:57:45.472Z,3.45
2023-09-05T07:00:13.170Z,3.40
2023-09-05T07:02:40.224Z,3.80
2023-09-05T07:05:07.677Z,3.78
2023-09-05T07:07:34.705Z,3.35
2023-09-05T07:10:01.982Z,3.50
2023-09-05T07:12:29.023Z,3.58
2023-09-05T07:14:56.035Z,3.40
2023-09-05T07:17:23.285Z,3.35
2023-09-05T07:19:50.328Z,3.00
2023-09-05T07:22:17.582Z,2.83
2023-09-05T07:24:44.645Z,2.85
2023-09-05T07:27:11.987Z,3.13
2023-09-05T07:29:39.033Z,3.15
2023-09-05T07:32:06.614Z,3.22
2023-09-05T07:34:33.658Z,3.20
2023-09-05T07:37:00.665Z,2.90
2023-09-05T07:39:27.710Z,3.15
2023-09-05T07:41:56.003Z,3.20
2023-09-05T07:44:22.970Z,3.10
2023-09-05T07:46:50.214Z,3.28
2023-09-05T07:49:19.882Z,2.90
2023-09-05T07:51:46.987Z,3.42
2023-09-05T07:54:14.243Z,3.00
2023-09-05T07:56:41.302Z,2.72
2023-09-05T07:59:08.362Z,3.10
2023-09-05T08:01:35.716Z,3.00
2023-09-05T08:04:03.114Z,3.22
2023-09-05T08:06:30.471Z,3.22
2023-09-05T08:08:57.749Z,2.80
2023-09-05T08:11:24.801Z,2.95
2023-09-05T08:13:52.661Z,2.80
2023-09-05T08:16:20.970Z,2.90
2023-09-05T08:18:48.053Z,2.50
2023-09-05T08:21:15.126Z,2.60
2023-09-05T08:23:42.401Z,2.65
2023-09-05T08:26:11.275Z,2.70
2023-09-05T08:28:39.250Z,2.60
2023-09-05T08:31:17.712Z,2.50
2023-09-05T08:33:45.698Z,2.30
2023-09-05T08:36:12.955Z,2.30
2023-09-05T08:38:40.117Z,2.33
2023-09-05T08:41:07.288Z,2.50
2023-09-05T08:43:36.325Z,2.33
2023-09-05T08:46:03.596Z,2.30
2023-09-05T08:48:43.964Z,2.05
2023-09-05T08:51:15.687Z,2.30
2023-09-05T08:53:55.299Z,2.30
2023-09-05T08:56:23.108Z,2.15
2023-09-05T08:58:55.521Z,2.20
2023-09-05T09:01:23.832Z,2.30
2023-09-05T09:03:52.142Z,2.30
2023-09-05T09:06:24.280Z,2.20
2023-09-05T09:08:52.042Z,2.33
2023-09-05T09:11:23.696Z,2.10
2023-09-05T09:13:59.804Z,2.17
2023-09-05T09:16:27.303Z,2.10
2023-09-05T09:19:02.913Z,2.00
2023-09-05T09:21:30.171Z,2.00
2023-09-05T09:24:01.327Z,2.10
2023-09-05T09:26:28.581Z,2.10
2023-09-05T09:28:55.890Z,2.00
2023-09-05T09:31:26.451Z,2.30
2023-09-05T09:33:58.190Z,2.20
2023-09-05T09:36:33.392Z,2.30
2023-09-05T09:39:07.873Z,2.13
2023-09-05T09:41:41.239Z,2.25
2023-09-05T09:44:08.272Z,2.10
2023-09-05T09:46:36.156Z,2.30
2023-09-05T09:49:08.458Z,2.28
2023-09-05T09:51:38.118Z,2.20
2023-09-05T09:54:09.776Z,2.17
2023-09-05T09:56:41.065Z,2.17
2023-09-05T09:59:10.227Z,2.10
2023-09-05T10:01:37.735Z,2.00
2023-09-05T10:04:05.752Z,2.00
2023-09-05T10:06:33.154Z,2.05
2023-09-05T10:09:01.104Z,2.30
2023-09-05T10:11:29.133Z,2.28
2023-09-05T10:13:59.211Z,2.22
2023-09-05T10:16:27.205Z,2.30
2023-09-05T10:18:55.572Z,2.35
2023-09-05T10:21:23.636Z,2.08
2023-09-05T10:23:52.119Z,2.28
2023-09-05T10:26:20.394Z,2.30
2023-09-05T10:28:47.952Z,2.42
2023-09-05T10:31:15.166Z,2.13
2023-09-05T10:33:44.259Z,2.17
2023-09-05T10:36:40.135Z,2.10
2023-09-05T10:39:23.241Z,2.20
2023-09-05T10:41:50.566Z,2.20
2023-09-05T10:44:17.703Z,2.13
2023-09-05T10:46:44.784Z,2.20
2023-09-05T10:49:14.331Z,2.47
2023-09-05T10:52:15.440Z,2.10
2023-09-05T10:54:42.804Z,2.15
2023-09-05T10:57:34.843Z,2.03
2023-09-05T11:00:14.101Z,2.30
2023-09-05T11:02:42.451Z,2.20
2023-09-05T11:05:13.751Z,2.10
2023-09-05T11:07:40.970Z,2.10
2023-09-05T11:10:08.592Z,2.15
2023-09-05T11:12:37.721Z,2.10
2023-09-05T11:15:08.520Z,1.90
2023-09-05T11:17:35.782Z,1.90
2023-09-05T11:20:03.210Z,1.85
2023-09-05T11:22:30.217Z,2.00
2023-09-05T11:25:01.265Z,1.88
2023-09-05T11:27:36.631Z,1.90
2023-09-05T11:30:04.912Z,1.88
2023-09-05T11:32:34.858Z,1.90
2023-09-05T11:35:02.794Z,1.90
2023-09-05T11:37:29.945Z,1.88
2023-09-05T11:40:09.134Z,2.20
2023-09-05T11:42:36.412Z,1.90
2023-09-05T11:45:03.696Z,1.80
2023-09-05T11:47:30.789Z,1.90
2023-09-05T11:49:59.495Z,1.60
2023-09-05T11:52:26.794Z,1.70
2023-09-05T11:54:55.280Z,1.80
2023-09-05T11:57:23.880Z,1.65
2023-09-05T11:59:51.686Z,1.80
2023-09-05T12:02:18.843Z,1.70
2023-09-05T12:04:47.834Z,1.52
2023-09-05T12:07:15.115Z,1.75
2023-09-05T12:09:42.682Z,1.63
2023-09-05T12:12:15.114Z,1.63
2023-09-05T12:14:54.256Z,1.80
2023-09-05T12:17:24.259Z,1.80
2023-09-05T12:19:52.694Z,1.50
2023-09-05T12:22:28.450Z,1.80
2023-09-05T12:25:17.808Z,1.60
2023-09-05T12:27:48.640Z,1.63
2023-09-05T12:30:30.040Z,1.80
2023-09-05T12:33:04.091Z,1.90
2023-09-05T12:35:33.352Z,1.90
2023-09-05T12:38:02.285Z,1.80
2023-09-05T12:40:29.545Z,1.90
2023-09-05T12:42:56.761Z,1.63
2023-09-05T12:45:23.704Z,1.60
2023-09-05T12:47:51.065Z,1.90
2023-09-05T12:50:22.808Z,1.70
2023-09-05T12:52:50.055Z,1.65
2023-09-05T12:55:17.128Z,1.73
2023-09-05T12:57:44.313Z,1.92
2023-09-05T13:00:11.941Z,1.80
2023-09-05T13:02:39.282Z,1.80
2023-09-05T13:05:06.716Z,1.70
2023-09-05T13:07:34.037Z,1.90
2023-09-05T13:10:01.356Z,1.70
2023-09-05T13:12:28.412Z,1.45
2023-09-05T13:14:55.738Z,1.50
2023-09-05T13:17:23.083Z,1.38
2023-09-05T13:19:50.334Z,1.48
2023-09-05T13:22:17.333Z,1.20
2023-09-05T13:24:45.807Z,1.20
2023-09-05T13:27:14.129Z,1.00
2023-09-05T13:29:41.451Z,1.40
2023-09-05T13:32:08.761Z,1.30
2023-09-05T13:34:36.067Z,1.80
2023-09-05T13:37:03.277Z,1.10
2023-09-05T13:39:30.343Z,1.00
2023-09-05T13:41:57.753Z,1.10
2023-09-05T13:44:25.038Z,0.85
2023-09-05T13:46:52.699Z,1.10
2023-09-05T13:49:20.500Z,1.00
2023-09-05T13:51:48.002Z,1.10
2023-09-05T13:54:15.448Z,1.30
2023-09-05T13:56:42.572Z,1.27
2023-09-05T13:59:09.633Z,1.27
2023-09-05T14:01:36.632Z,1.23
2023-09-05T14:04:04.029Z,1.20
2023-09-05T14:06:31.149Z,1.10
2023-09-05T14:08:58.252Z,1.30
2023-09-05T14:11:25.340Z,1.25
2023-09-05T14:13:52.400Z,1.25
2023-09-05T14:16:19.762Z,1.20
2023-09-05T14:18:49.810Z,1.30
2023-09-05T14:21:16.958Z,1.15
2023-09-05T14:23:44.035Z,1.30
2023-09-05T14:26:11.288Z,1.30
2023-09-05T14:28:38.294Z,1.50
2023-09-05T14:31:05.346Z,1.20
2023-09-05T14:33:32.459Z,1.20
2023-09-05T14:35:59.657Z,1.40
2023-09-05T14:38:27.088Z,1.60
2023-09-05T14:40:54.212Z,1.67
2023-09-05T14:43:21.324Z,1.50
2023-09-05T14:45:48.529Z,1.45
2023-09-05T14:48:15.660Z,1.70
2023-09-05T14:50:42.744Z,1.40
2023-09-05T14:53:10.296Z,1.80
2023-09-05T14:55:37.516Z,1.52
2023-09-05T14:58:04.778Z,1.90
2023-09-05T15:00:32.041Z,1.60
2023-09-05T15:02:59.370Z,1.60
2023-09-05T15:05:26.647Z,1.27
2023-09-05T15:07:53.634Z,1.40
2023-09-05T15:10:20.695Z,1.40
2023-09-05T15:12:47.748Z,1.55
2023-09-05T15:15:14.868Z,1.30
2023-09-05T15:17:41.987Z,1.30
2023-09-05T15:20:09.768Z,1.30
2023-09-05T15:22:37.088Z,1.70
2023-09-05T15:25:18.618Z,1.50
2023-09-05T15:27:46.433Z,1.77
2023-09-05T15:30:15.376Z,1.40
2023-09-05T15:32:43.375Z,1.50
2023-09-05T15:35:11.096Z,1.40
2023-09-05T15:37:38.209Z,1.50
2023-09-05T15:40:05.771Z,1.40
2023-09-05T15:42:33.300Z,1.50
2023-09-05T15:45:00.456Z,1.40
2023-09-05T15:47:27.760Z,1.35
2023-09-05T15:49:54.766Z,1.40
2023-09-05T15:52:21.817Z,1.40
2023-09-05T15:54:49.101Z,1.40
2023-09-05T15:57:16.247Z,1.50
2023-09-05T15:59:44.001Z,1.52
2023-09-05T16:02:14.358Z,1.50
2023-09-05T16:04:42.237Z,1.60
2023-09-05T16:07:09.582Z,1.50
2023-09-05T16:09:38.030Z,1.70
2023-09-05T16:12:05.685Z,1.60
2023-09-05T16:14:33.172Z,1.50
2023-09-05T16:17:01.035Z,1.65
2023-09-05T16:19:28.130Z,1.58
2023-09-05T16:21:55.149Z,1.63
2023-09-05T16:24:22.413Z,1.67
2023-09-05T16:26:49.483Z,1.50
2023-09-05T16:29:16.597Z,1.70
2023-09-05T16:31:46.621Z,1.60
2023-09-05T16:34:13.680Z,1.50
2023-09-05T16:36:40.857Z,1.50
2023-09-05T16:39:08.036Z,1.65
2023-09-05T16:41:35.150Z,1.52
2023-09-05T16:44:02.535Z,1.60
2023-09-05T16:46:29.854Z,1.60
2023-09-05T16:48:58.300Z,1.67
2023-09-05T16:51:25.425Z,1.67
2023-09-05T16:53:52.689Z,1.50
2023-09-05T16:56:19.796Z,1.85
2023-09-05T16:58:47.075Z,1.70
2023-09-05T17:01:14.278Z,1.77
2023-09-05T17:03:42.055Z,1.77
2023-09-05T17:06:09.397Z,1.58
2023-09-05T17:08:36.654Z,1.80
2023-09-05T17:11:04.959Z,1.77
2023-09-05T17:13:32.696Z,1.77
2023-09-05T17:15:59.923Z,1.55
2023-09-05T17:18:27.558Z,1.83
2023-09-05T17:20:55.447Z,1.63
2023-09-05T17:23:23.736Z,1.70
2023-09-05T17:25:51.560Z,1.80
2023-09-05T17:28:19.799Z,1.70
2023-09-05T17:30:47.345Z,1.63
2023-09-05T17:33:14.735Z,2.00
2023-09-05T17:35:42.380Z,1.80
2023-09-05T17:38:09.679Z,1.85
2023-09-05T17:40:41.895Z,1.95
2023-09-05T17:43:08.946Z,2.10
2023-09-05T17:45:38.797Z,2.00
2023-09-05T17:48:07.137Z,2.00
2023-09-05T17:50:34.426Z,2.00
2023-09-05T17:53:01.434Z,1.90
2023-09-05T17:55:28.684Z,2.05
2023-09-05T17:57:55.793Z,2.15
2023-09-05T18:00:23.106Z,2.08
2023-09-05T18:02:51.894Z,2.50
2023-09-05T18:05:20.244Z,7.65
2023-09-05T18:07:47.231Z,3.53
2023-09-05T18:10:15.493Z,2.70
2023-09-05T18:12:42.782Z,2.83
2023-09-05T18:15:10.192Z,2.70
2023-09-05T18:17:37.238Z,2.53
2023-09-05T18:20:07.645Z,2.55
2023-09-05T18:22:34.781Z,2.60
2023-09-05T18:25:01.837Z,2.83
2023-09-05T18:27:29.140Z,2.72
2023-09-05T18:29:56.191Z,2.30
2023-09-05T18:32:23.604Z,2.55
2023-09-05T18:34:51.891Z,2.70
2023-09-05T18:37:18.967Z,2.40
2023-09-05T18:39:46.199Z,2.80
2023-09-05T18:42:13.313Z,2.63
2023-09-05T18:44:42.785Z,5.43
2023-09-05T18:47:10.414Z,7.70
2023-09-05T18:49:38.941Z,5.50
2023-09-05T18:52:07.632Z,3.78
2023-09-05T18:54:36.429Z,2.90
2023-09-05T18:57:05.522Z,3.10
2023-09-05T18:59:32.511Z,2.90
2023-09-05T19:02:01.553Z,2.60
2023-09-05T19:04:29.000Z,2.33
2023-09-05T19:06:56.124Z,2.47
2023-09-05T19:09:24.893Z,2.40
2023-09-05T19:11:52.112Z,2.60
2023-09-05T19:14:19.155Z,2.70
2023-09-05T19:16:46.307Z,2.72
2023-09-05T19:19:13.404Z,2.35
2023-09-05T19:21:40.839Z,2.55
2023-09-05T19:24:08.364Z,2.40
2023-09-05T19:26:35.644Z,2.30
2023-09-05T19:29:02.665Z,2.50
2023-09-05T19:31:29.771Z,2.60
2023-09-05T19:33:57.116Z,2.58
2023-09-05T19:36:24.388Z,2.63
2023-09-05T19:38:51.651Z,2.90
2023-09-05T19:41:18.719Z,3.22
2023-09-05T19:43:47.261Z,2.80
2023-09-05T19:46:16.177Z,2.75
2023-09-05T19:48:43.224Z,2.88
2023-09-05T19:51:10.545Z,3.10
2023-09-05T19:53:37.716Z,2.85
2023-09-05T19:56:04.841Z,3.03
2023-09-05T19:58:33.218Z,2.63
2023-09-05T20:01:00.909Z,2.42
2023-09-05T20:03:28.146Z,2.40
2023-09-05T20:05:55.499Z,2.85
2023-09-05T20:08:22.746Z,3.10
2023-09-05T20:10:51.007Z,2.60
2023-09-05T20:13:18.288Z,3.03
2023-09-05T20:15:45.616Z,3.05
2023-09-05T20:18:12.921Z,4.30
2023-09-05T20:20:39.941Z,3.60
2023-09-05T20:23:07.221Z,4.20
2023-09-05T20:25:34.236Z,3.70
2023-09-05T20:28:01.312Z,3.92
2023-09-05T20:30:28.342Z,3.65
2023-09-05T20:32:55.665Z,3.47
2023-09-05T20:35:23.049Z,4.20
2023-09-05T20:37:50.087Z,3.92
2023-09-05T20:40:17.116Z,4.70
2023-09-05T20:42:44.192Z,4.30
2023-09-05T20:45:11.296Z,4.20
2023-09-05T20:47:38.501Z,4.10
2023-09-05T20:50:06.378Z,4.20
2023-09-05T20:52:33.658Z,4.00
2023-09-05T20:55:01.069Z,4.15
2023-09-05T20:57:28.166Z,4.05
2023-09-05T20:59:55.211Z,3.80
2023-09-05T21:02:22.204Z,4.90
2023-09-05T21:04:49.420Z,4.40
2023-09-05T21:07:16.478Z,4.60
2023-09-05T21:09:43.536Z,4.38
2023-09-05T21:12:10.541Z,4.82
2023-09-05T21:14:37.493Z,4.10
2023-09-05T21:17:04.694Z,4.10
2023-09-05T21:19:31.694Z,3.75
2023-09-05T21:21:58.762Z,4.30
2023-09-05T21:24:26.238Z,3.60
2023-09-05T21:26:53.392Z,4.07
2023-09-05T21:29:20.598Z,4.60
2023-09-05T21:31:47.623Z,3.77
2023-09-05T21:34:14.691Z,4.25
2023-09-05T21:36:42.302Z,3.95
2023-09-05T21:39:09.341Z,3.50
2023-09-05T21:41:36.356Z,3.60
2023-09-05T21:44:03.708Z,3.80
2023-09-05T21:46:31.000Z,3.57
2023-09-05T21:48:58.037Z,3.53
2023-09-05T21:51:25.130Z,3.60
2023-09-05T21:53:52.139Z,3.40
2023-09-05T21:56:19.122Z,3.70
2023-09-05T21:58:46.366Z,3.33
2023-09-05T22:01:13.457Z,3.63
2023-09-05T22:03:40.621Z,2.80
2023-09-05T22:06:07.850Z,2.70
2023-09-05T22:08:35.091Z,2.70
2023-09-05T22:11:02.053Z,2.83
2023-09-05T22:13:29.003Z,2.90
2023-09-05T22:15:56.117Z,3.27
2023-09-05T22:18:23.200Z,3.50
2023-09-05T22:20:58.505Z,3.50
2023-09-05T22:23:26.480Z,3.57
2023-09-05T22:25:53.584Z,3.83
2023-09-05T22:28:20.692Z,2.80
2023-09-05T22:30:48.014Z,2.97
2023-09-05T22:33:15.464Z,3.17
2023-09-05T22:35:42.710Z,3.07
2023-09-05T22:38:09.926Z,3.60
2023-09-05T22:40:37.573Z,3.80
2023-09-05T22:43:04.888Z,4.10
2023-09-05T22:45:35.014Z,3.17
2023-09-05T22:48:02.430Z,2.80
2023-09-05T22:50:29.468Z,3.30
2023-09-05T22:52:56.757Z,3.80
2023-09-05T22:55:23.960Z,3.63
2023-09-05T22:57:51.110Z,3.40
2023-09-05T23:00:18.731Z,4.10
2023-09-05T23:02:45.843Z,3.20
2023-09-05T23:05:13.028Z,3.27
2023-09-05T23:07:43.882Z,3.47
2023-09-05T23:10:12.125Z,3.47
2023-09-05T23:12:39.429Z,3.70
2023-09-05T23:15:06.885Z,3.37
2023-09-05T23:17:34.278Z,3.20
2023-09-05T23:20:01.936Z,4.03
2023-09-05T23:22:28.877Z,3.83
2023-09-05T23:24:55.981Z,3.40
2023-09-05T23:27:23.077Z,3.67
2023-09-05T23:29:50.451Z,3.77
2023-09-05T23:32:17.675Z,3.63
2023-09-05T23:34:45.150Z,3.50
2023-09-05T23:37:12.124Z,3.27
2023-09-05T23:39:39.212Z,4.00
2023-09-05T23:42:06.211Z,4.50
2023-09-05T23:44:33.213Z,4.20
2023-09-05T23:47:00.248Z,4.63
2023-09-05T23:49:27.422Z,3.63
2023-09-05T23:51:54.592Z,4.40
2023-09-05T23:54:21.706Z,4.50
2023-09-05T23:56:48.718Z,3.40
2023-09-05T23:59:15.881Z,3.73
